createdAt,value
2022-08-20T00:01:58.173Z,22.68
2022-08-20T00:04:45.953Z,22.11
2022-08-20T00:07:33.457Z,22.73
2022-08-20T00:10:22.790Z,21.95
2022-08-20T00:13:15.549Z,21.81
2022-08-20T00:16:07.221Z,22.41
2022-08-20T00:18:54.649Z,22.05
2022-08-20T00:21:42.127Z,22.57
2022-08-20T00:24:29.886Z,22.05
2022-08-20T00:27:17.265Z,22.44
2022-08-20T00:30:08.450Z,21.63
2022-08-20T00:33:01.549Z,22.30
2022-08-20T00:35:52.666Z,21.59
2022-08-20T00:38:43.420Z,21.99
2022-08-20T00:41:31.098Z,22.08
2022-08-20T00:44:22.566Z,21.76
2022-08-20T00:47:11.201Z,22.07
2022-08-20T00:49:58.700Z,22.09
2022-08-20T00:52:50.919Z,22.08
2022-08-20T00:55:38.902Z,22.04
2022-08-20T00:58:28.884Z,21.98
2022-08-20T01:01:16.794Z,21.86
2022-08-20T01:04:05.471Z,21.77
2022-08-20T01:06:55.988Z,21.81
2022-08-20T01:09:57.952Z,21.09
2022-08-20T01:12:48.092Z,21.17
2022-08-20T01:15:43.947Z,21.34
2022-08-20T01:18:31.620Z,20.98
2022-08-20T01:21:33.534Z,21.94
2022-08-20T01:24:28.440Z,20.97
2022-08-20T01:27:16.112Z,21.93
2022-08-20T01:30:06.810Z,21.93
2022-08-20T01:32:55.270Z,21.91
2022-08-20T01:35:43.360Z,21.22
2022-08-20T01:38:30.854Z,21.25
2022-08-20T01:41:36.770Z,21.21
2022-08-20T01:44:25.414Z,20.96
2022-08-20T01:47:17.450Z,21.34
2022-08-20T01:50:17.937Z,21.04
2022-08-20T01:53:43.119Z,21.18
2022-08-20T01:56:32.074Z,20.97
2022-08-20T01:59:19.620Z,21.03
2022-08-20T02:02:08.406Z,21.12
2022-08-20T02:04:58.614Z,21.07
2022-08-20T02:07:46.402Z,20.87
2022-08-20T02:10:33.878Z,20.84
2022-08-20T02:13:21.910Z,21.13
2022-08-20T02:16:09.417Z,20.96
2022-08-20T02:19:01.888Z,20.74
2022-08-20T02:21:55.441Z,20.96
2022-08-20T02:24:43.949Z,20.97
2022-08-20T02:27:31.791Z,20.96
2022-08-20T02:30:27.766Z,20.94
2022-08-20T02:33:17.898Z,20.54
2022-08-20T02:36:06.071Z,19.84
2022-08-20T02:38:54.816Z,20.24
2022-08-20T02:41:42.274Z,20.82
2022-08-20T02:44:30.546Z,20.18
2022-08-20T02:47:17.967Z,20.61
2022-08-20T02:50:08.089Z,20.22
2022-08-20T02:52:55.876Z,20.89
2022-08-20T02:55:43.663Z,20.34
2022-08-20T02:58:31.353Z,20.51
2022-08-20T03:01:19.079Z,20.50
2022-08-20T03:04:06.485Z,20.99
2022-08-20T03:06:54.045Z,20.47
2022-08-20T03:09:41.822Z,20.69
2022-08-20T03:12:29.410Z,20.45
2022-08-20T03:15:17.445Z,20.85
2022-08-20T03:18:05.344Z,20.83
2022-08-20T03:20:52.838Z,21.20
2022-08-20T03:23:43.276Z,20.86
2022-08-20T03:26:30.917Z,20.85
2022-08-20T03:29:19.429Z,20.97
2022-08-20T03:32:39.107Z,20.96
2022-08-20T03:46:26.830Z,20.89
2022-08-20T03:49:14.736Z,21.07
2022-08-20T03:52:03.882Z,20.96
2022-08-20T03:54:51.352Z,21.18
2022-08-20T03:57:48.737Z,20.93
2022-08-20T04:00:41.431Z,21.39
2022-08-20T04:03:28.858Z,21.33
2022-08-20T04:06:16.537Z,21.10
2022-08-20T04:09:04.538Z,21.46
2022-08-20T04:11:54.238Z,20.92
2022-08-20T04:14:41.666Z,21.23
2022-08-20T04:17:28.949Z,21.19
2022-08-20T04:20:22.684Z,21.24
2022-08-20T04:30:23.346Z,20.91
2022-08-20T04:33:11.830Z,20.36
2022-08-20T04:36:05.283Z,20.43
2022-08-20T04:38:59.207Z,20.75
2022-08-20T04:42:10.231Z,20.21
2022-08-20T04:45:00.841Z,19.81
2022-08-20T04:47:49.780Z,19.62
2022-08-20T04:50:39.061Z,20.47
2022-08-20T04:53:28.004Z,20.51
2022-08-20T04:56:15.359Z,20.23
2022-08-20T04:59:03.175Z,20.56
2022-08-20T05:01:50.461Z,20.45
2022-08-20T05:04:38.145Z,20.20
2022-08-20T05:07:26.063Z,20.23
2022-08-20T05:10:15.479Z,20.68
2022-08-20T05:13:02.622Z,20.70
2022-08-20T05:15:51.018Z,20.39
2022-08-20T05:18:38.362Z,20.20
2022-08-20T05:21:25.654Z,20.15
2022-08-20T05:24:12.989Z,20.41
2022-08-20T05:27:01.272Z,20.71
2022-08-20T05:29:48.582Z,20.47
2022-08-20T05:32:44.730Z,20.35
2022-08-20T05:35:38.474Z,20.60
2022-08-20T05:38:28.865Z,20.65
2022-08-20T05:41:28.848Z,20.63
2022-08-20T05:44:18.668Z,20.81
2022-08-20T05:47:06.133Z,20.57
2022-08-20T05:49:54.011Z,20.61
2022-08-20T05:52:42.256Z,20.25
2022-08-20T05:55:32.602Z,20.68
2022-08-20T05:58:26.656Z,20.68
2022-08-20T06:01:14.042Z,20.40
2022-08-20T06:04:20.463Z,20.32
2022-08-20T06:07:07.839Z,20.54
2022-08-20T06:09:55.145Z,20.29
2022-08-20T06:12:44.414Z,20.31
2022-08-20T06:15:33.857Z,20.77
2022-08-20T06:18:28.650Z,20.47
2022-08-20T06:21:16.126Z,20.76
2022-08-20T06:24:03.894Z,20.48
2022-08-20T06:26:59.496Z,20.70
2022-08-20T06:29:47.494Z,20.60
2022-08-20T06:32:35.181Z,20.46
2022-08-20T06:35:23.072Z,20.59
2022-08-20T06:38:12.772Z,20.81
2022-08-20T06:41:00.101Z,21.11
2022-08-20T06:43:47.370Z,20.71
2022-08-20T06:46:36.177Z,21.00
2022-08-20T06:49:23.543Z,20.83
2022-08-20T06:52:11.633Z,21.28
2022-08-20T06:55:00.027Z,20.96
2022-08-20T06:57:48.342Z,21.34
2022-08-20T07:00:38.076Z,21.38
2022-08-20T07:03:26.118Z,21.36
2022-08-20T07:06:14.373Z,21.44
2022-08-20T07:09:01.695Z,21.55
2022-08-20T07:11:49.205Z,21.60
2022-08-20T07:14:36.746Z,21.63
2022-08-20T07:17:24.961Z,21.80
2022-08-20T07:20:15.331Z,21.76
2022-08-20T07:23:02.885Z,21.83
2022-08-20T07:25:50.633Z,22.00
2022-08-20T07:28:37.954Z,22.00
2022-08-20T07:31:43.660Z,22.05
2022-08-20T07:34:35.357Z,22.05
2022-08-20T07:37:23.787Z,21.88
2022-08-20T07:40:14.331Z,21.81
2022-08-20T07:43:02.904Z,21.56
2022-08-20T07:45:58.388Z,21.57
2022-08-20T07:48:49.489Z,21.55
2022-08-20T07:51:37.331Z,21.59
2022-08-20T07:54:24.590Z,21.81
2022-08-20T07:57:12.925Z,21.92
2022-08-20T08:00:00.303Z,22.02
2022-08-20T08:02:47.651Z,22.12
2022-08-20T08:05:38.295Z,22.12
2022-08-20T08:08:28.913Z,22.30
2022-08-20T08:11:16.989Z,22.29
2022-08-20T08:14:06.566Z,22.19
2022-08-20T08:16:57.188Z,22.17
2022-08-20T08:19:49.017Z,22.15
2022-08-20T08:22:36.341Z,22.25
2022-08-20T08:25:23.667Z,22.47
2022-08-20T08:28:11.711Z,22.58
2022-08-20T08:30:59.020Z,22.78
2022-08-20T08:33:46.383Z,22.93
2022-08-20T08:36:33.674Z,22.94
2022-08-20T08:39:22.127Z,22.87
2022-08-20T08:42:34.174Z,22.66
2022-08-20T08:45:22.330Z,22.73
2022-08-20T08:48:18.266Z,22.58
2022-08-20T08:51:11.823Z,22.64
2022-08-20T08:54:04.588Z,22.66
2022-08-20T08:56:54.330Z,22.83
2022-08-20T08:59:58.347Z,22.85
2022-08-20T09:03:09.661Z,22.92
2022-08-20T09:06:04.968Z,22.98
2022-08-20T09:09:04.525Z,23.05
2022-08-20T09:12:03.213Z,23.05
2022-08-20T09:14:51.408Z,23.10
2022-08-20T09:17:38.656Z,23.07
2022-08-20T09:20:27.142Z,23.07
2022-08-20T09:23:14.650Z,23.23
2022-08-20T09:26:01.957Z,23.19
2022-08-20T09:28:52.312Z,23.38
2022-08-20T09:31:39.744Z,23.57
2022-08-20T09:34:27.105Z,23.77
2022-08-20T09:37:15.494Z,23.71
2022-08-20T09:40:04.979Z,23.63
2022-08-20T09:42:52.341Z,23.76
2022-08-20T09:45:39.656Z,23.75
2022-08-20T09:48:29.602Z,23.71
2022-08-20T09:51:19.409Z,23.61
2022-08-20T09:54:06.852Z,23.74
2022-08-20T09:56:54.126Z,23.72
2022-08-20T09:59:41.685Z,23.82
2022-08-20T10:02:28.985Z,23.62
2022-08-20T10:05:16.393Z,23.85
2022-08-20T10:08:08.638Z,23.68
2022-08-20T10:10:55.951Z,23.70
2022-08-20T10:13:43.240Z,23.56
2022-08-20T10:16:30.801Z,23.32
2022-08-20T10:19:18.086Z,23.26
2022-08-20T10:22:06.111Z,23.04
2022-08-20T10:24:53.464Z,23.27
2022-08-20T10:27:40.722Z,23.20
2022-08-20T10:30:28.120Z,23.12
2022-08-20T10:33:15.733Z,23.13
2022-08-20T10:36:10.115Z,23.37
2022-08-20T10:38:57.785Z,23.54
2022-08-20T10:41:45.029Z,23.45
2022-08-20T10:44:32.421Z,23.55
2022-08-20T10:47:28.476Z,23.77
2022-08-20T10:50:19.784Z,24.04
2022-08-20T10:53:07.063Z,23.96
2022-08-20T10:55:55.517Z,23.94
2022-08-20T10:58:43.045Z,23.88
2022-08-20T11:01:36.159Z,23.89
2022-08-20T11:04:24.096Z,23.99
2022-08-20T11:07:55.484Z,23.99
2022-08-20T11:10:34.054Z,24.17
2022-08-20T11:13:21.987Z,24.15
2022-08-20T11:16:09.293Z,24.18
2022-08-20T11:18:57.035Z,23.91
2022-08-20T11:21:44.346Z,24.02
2022-08-20T11:24:31.589Z,23.86
2022-08-20T11:27:26.512Z,24.17
2022-08-20T11:30:21.086Z,24.21
2022-08-20T11:33:08.436Z,24.47
2022-08-20T11:35:55.892Z,24.48
2022-08-20T11:38:43.168Z,24.64
2022-08-20T11:41:30.484Z,24.77
2022-08-20T11:44:21.081Z,24.61
2022-08-20T11:47:20.827Z,24.62
2022-08-20T11:50:12.576Z,24.61
2022-08-20T11:53:01.137Z,24.66
2022-08-20T11:55:49.524Z,24.59
2022-08-20T11:58:36.957Z,24.60
2022-08-20T12:01:24.562Z,24.80
2022-08-20T12:04:11.852Z,24.70
2022-08-20T12:07:08.127Z,24.83
2022-08-20T12:09:55.731Z,24.89
2022-08-20T12:12:43.030Z,24.80
2022-08-20T12:15:30.514Z,24.61
2022-08-20T12:18:17.814Z,24.49
2022-08-20T12:21:05.222Z,24.68
2022-08-20T12:23:52.661Z,24.70
2022-08-20T12:26:39.966Z,24.87
2022-08-20T12:29:27.705Z,25.03
2022-08-20T12:32:15.140Z,25.00
2022-08-20T12:35:02.497Z,24.87
2022-08-20T12:37:50.533Z,25.03
2022-08-20T12:40:38.024Z,24.83
2022-08-20T12:43:25.569Z,24.69
2022-08-20T12:46:12.922Z,24.74
2022-08-20T12:49:00.170Z,24.94
2022-08-20T12:51:47.421Z,25.04
2022-08-20T12:54:35.477Z,24.98
2022-08-20T12:57:34.388Z,25.02
2022-08-20T13:00:29.357Z,25.11
2022-08-20T13:03:17.302Z,25.03
2022-08-20T13:06:04.679Z,25.18
2022-08-20T13:08:51.957Z,25.33
2022-08-20T13:11:39.258Z,25.37
2022-08-20T13:14:26.766Z,25.32
2022-08-20T13:17:17.583Z,25.27
2022-08-20T13:20:07.825Z,25.33
2022-08-20T13:22:55.291Z,25.14
2022-08-20T13:25:42.617Z,25.05
2022-08-20T13:28:30.240Z,24.97
2022-08-20T13:31:17.537Z,25.19
2022-08-20T13:34:05.863Z,25.36
2022-08-20T13:36:55.182Z,25.32
2022-08-20T13:39:43.176Z,25.20
2022-08-20T13:42:30.701Z,25.04
2022-08-20T13:45:18.016Z,24.77
2022-08-20T13:48:09.088Z,24.76
2022-08-20T13:51:01.929Z,24.76
2022-08-20T13:53:54.349Z,25.05
2022-08-20T13:56:41.704Z,25.33
2022-08-20T13:59:28.950Z,25.49
2022-08-20T14:04:52.336Z,25.73
2022-08-20T14:07:39.673Z,25.54
2022-08-20T14:10:31.214Z,25.39
2022-08-20T14:13:22.709Z,25.31
2022-08-20T14:16:21.382Z,25.44
2022-08-20T14:19:15.005Z,25.54
2022-08-20T14:22:02.253Z,25.57
2022-08-20T14:24:50.036Z,25.41
2022-08-20T14:27:37.870Z,25.40
2022-08-20T14:30:29.093Z,25.52
2022-08-20T14:33:16.453Z,25.67
2022-08-20T14:36:04.208Z,25.73
2022-08-20T14:38:51.500Z,25.83
2022-08-20T14:41:38.821Z,25.77
2022-08-20T14:44:26.080Z,25.77
2022-08-20T14:47:19.236Z,25.58
2022-08-20T14:50:13.261Z,25.45
2022-08-20T14:53:01.410Z,25.59
2022-08-20T14:55:48.681Z,25.65
2022-08-20T14:58:35.952Z,25.45
2022-08-20T15:01:23.277Z,25.52
2022-08-20T15:04:10.562Z,25.54
2022-08-20T15:06:57.839Z,25.43
2022-08-20T15:09:52.245Z,25.46
2022-08-20T15:12:39.536Z,25.46
2022-08-20T15:15:30.407Z,25.51
2022-08-20T15:18:18.430Z,25.34
2022-08-20T15:21:05.702Z,25.38
2022-08-20T15:23:57.626Z,25.47
2022-08-20T15:26:44.987Z,25.48
2022-08-20T15:29:32.249Z,25.54
2022-08-20T15:32:20.490Z,25.53
2022-08-20T15:35:09.905Z,25.55
2022-08-20T15:37:58.065Z,25.42
2022-08-20T15:40:45.219Z,25.41
2022-08-20T15:43:33.666Z,25.33
2022-08-20T15:46:20.913Z,25.32
2022-08-20T15:49:12.342Z,25.39
2022-08-20T15:51:59.633Z,25.42
2022-08-20T15:54:47.870Z,25.45
2022-08-20T15:58:07.901Z,25.48
2022-08-20T16:01:24.341Z,25.54
2022-08-20T16:04:33.756Z,25.52
2022-08-20T16:07:54.543Z,25.42
2022-08-20T16:10:58.820Z,25.36
2022-08-20T16:13:53.164Z,25.24
2022-08-20T16:16:43.080Z,25.16
2022-08-20T16:19:56.070Z,25.19
2022-08-20T16:22:45.987Z,25.16
2022-08-20T16:26:02.245Z,25.14
2022-08-20T16:29:21.449Z,25.07
2022-08-20T16:32:30.896Z,25.05
2022-08-20T16:35:35.015Z,25.03
2022-08-20T16:38:36.353Z,24.98
2022-08-20T16:41:27.565Z,24.91
2022-08-20T16:44:29.749Z,24.86
2022-08-20T16:47:17.360Z,24.83
2022-08-20T16:50:20.359Z,24.78
2022-08-20T16:53:18.312Z,24.74
2022-08-20T16:56:05.671Z,24.70
2022-08-20T16:58:52.917Z,24.66
2022-08-20T17:01:40.366Z,24.68
2022-08-20T17:04:27.641Z,24.64
2022-08-20T17:07:29.647Z,24.63
2022-08-20T17:10:29.609Z,24.60
2022-08-20T17:13:16.825Z,24.55
2022-08-20T17:16:07.584Z,24.52
2022-08-20T17:19:27.775Z,24.50
2022-08-20T17:22:18.977Z,24.43
2022-08-20T17:25:19.669Z,24.37
2022-08-20T17:28:19.256Z,24.30
2022-08-20T17:31:06.774Z,24.28
2022-08-20T17:33:54.072Z,24.27
2022-08-20T17:36:51.571Z,24.13
2022-08-20T17:39:48.271Z,24.25
2022-08-20T17:42:51.209Z,24.19
2022-08-20T17:45:44.639Z,24.11
2022-08-20T17:48:46.774Z,24.06
2022-08-20T17:51:38.475Z,24.05
2022-08-20T17:54:39.066Z,24.02
2022-08-20T17:57:33.094Z,23.98
2022-08-20T18:00:25.539Z,23.95
2022-08-20T18:03:23.577Z,23.92
2022-08-20T18:06:19.945Z,23.85
2022-08-20T18:09:16.734Z,23.80
2022-08-20T18:12:21.754Z,23.73
2022-08-20T18:15:24.632Z,23.67
2022-08-20T18:18:37.344Z,23.62
2022-08-20T18:22:23.509Z,23.54
2022-08-20T18:25:32.640Z,23.42
2022-08-20T18:28:33.186Z,23.36
2022-08-20T18:31:50.486Z,23.33
2022-08-20T18:34:40.305Z,23.23
2022-08-20T18:37:27.641Z,23.14
2022-08-20T18:40:33.583Z,23.09
2022-08-20T18:43:31.447Z,23.01
2022-08-20T18:46:22.247Z,22.96
2022-08-20T18:49:12.761Z,22.96
2022-08-20T18:52:13.525Z,22.86
2022-08-20T18:55:05.055Z,22.83
2022-08-20T18:58:04.049Z,22.71
2022-08-20T19:00:53.120Z,22.58
2022-08-20T19:03:49.551Z,22.64
2022-08-20T19:06:44.262Z,22.57
2022-08-20T19:09:46.671Z,22.52
2022-08-20T19:12:46.018Z,22.38
2022-08-20T19:15:36.115Z,22.33
2022-08-20T19:18:30.273Z,22.26
2022-08-20T19:21:24.831Z,22.24
2022-08-20T19:24:16.307Z,22.18
2022-08-20T19:27:07.366Z,22.22
2022-08-20T19:29:56.746Z,22.23
2022-08-20T19:32:52.732Z,22.19
2022-08-20T19:35:40.272Z,22.14
2022-08-20T19:38:27.529Z,22.02
2022-08-20T19:41:28.159Z,21.95
2022-08-20T19:44:42.729Z,21.95
2022-08-20T19:47:36.973Z,21.92
2022-08-20T19:50:30.014Z,21.93
2022-08-20T19:53:30.790Z,21.88
2022-08-20T19:56:21.166Z,21.84
2022-08-20T19:59:15.879Z,21.77
2022-08-20T20:02:05.984Z,21.67
2022-08-20T20:05:09.830Z,21.60
2022-08-20T20:07:58.487Z,21.41
2022-08-20T20:10:54.148Z,21.33
2022-08-20T20:13:44.331Z,21.36
2022-08-20T20:16:33.413Z,21.35
2022-08-20T20:19:26.909Z,21.36
2022-08-20T20:22:22.400Z,21.39
2022-08-20T20:25:12.691Z,21.25
2022-08-20T20:28:11.044Z,21.23
2022-08-20T20:31:10.659Z,21.25
2022-08-20T20:34:01.737Z,21.26
2022-08-20T20:36:59.610Z,21.16
2022-08-20T20:40:00.265Z,21.04
2022-08-20T20:43:06.216Z,20.89
2022-08-20T20:46:14.265Z,20.72
2022-08-20T20:49:27.683Z,20.57
2022-08-20T20:52:34.030Z,20.49
2022-08-20T20:55:22.846Z,20.38
2022-08-20T20:58:10.127Z,20.40
2022-08-20T21:00:57.394Z,20.26
2022-08-20T21:03:44.668Z,20.15
2022-08-20T21:06:31.913Z,20.17
2022-08-20T21:09:21.018Z,20.16
2022-08-20T21:12:10.057Z,20.16
2022-08-20T21:14:57.367Z,20.07
2022-08-20T21:17:44.657Z,20.05
2022-08-20T21:20:32.989Z,20.07
2022-08-20T21:23:20.345Z,20.10
2022-08-20T21:26:28.015Z,20.14
2022-08-20T21:29:24.067Z,20.21
2022-08-20T21:32:13.021Z,20.25
2022-08-20T21:35:02.831Z,20.26
2022-08-20T21:37:50.153Z,20.28
2022-08-20T21:40:37.624Z,20.35
2022-08-20T21:43:25.350Z,20.37
2022-08-20T21:46:12.741Z,20.33
2022-08-20T21:49:00.633Z,20.32
2022-08-20T21:51:50.719Z,20.28
2022-08-20T21:54:37.978Z,20.22
2022-08-20T21:57:30.950Z,20.11
2022-08-20T22:00:40.996Z,20.14
2022-08-20T22:03:35.047Z,20.11
2022-08-20T22:06:25.897Z,19.98
2022-08-20T22:09:13.857Z,20.02
2022-08-20T22:12:01.413Z,20.06
2022-08-20T22:14:49.323Z,20.02
2022-08-20T22:17:36.901Z,19.99
2022-08-20T22:20:24.193Z,19.93
2022-08-20T22:23:11.909Z,19.91
2022-08-20T22:25:59.256Z,19.93
2022-08-20T22:28:51.090Z,19.91
2022-08-20T22:31:41.513Z,19.90
2022-08-20T22:34:31.906Z,19.85
2022-08-20T22:37:19.286Z,19.85
2022-08-20T22:40:07.306Z,19.81
2022-08-20T22:42:54.754Z,19.80
2022-08-20T22:45:44.584Z,19.82
2022-08-20T22:48:32.113Z,19.82
2022-08-20T22:51:24.327Z,19.77
2022-08-20T22:54:16.492Z,19.68
2022-08-20T22:57:04.931Z,19.57
2022-08-20T22:59:56.219Z,19.61
2022-08-20T23:02:46.088Z,19.59
2022-08-20T23:05:35.544Z,19.58
2022-08-20T23:08:22.785Z,19.52
2022-08-20T23:11:14.369Z,19.48
2022-08-20T23:14:01.630Z,19.42
2022-08-20T23:16:55.273Z,19.37
2022-08-20T23:19:46.822Z,19.43
2022-08-20T23:22:34.704Z,19.47
2022-08-20T23:25:21.968Z,19.47
2022-08-20T23:28:09.940Z,19.49
2022-08-20T23:30:57.242Z,19.37
2022-08-20T23:33:45.027Z,19.39
2022-08-20T23:36:32.573Z,19.42
2022-08-20T23:39:20.342Z,19.41
2022-08-20T23:42:07.657Z,19.40
2022-08-20T23:44:54.982Z,19.30
2022-08-20T23:47:43.102Z,19.31
2022-08-20T23:50:30.793Z,19.32
2022-08-20T23:53:18.071Z,19.19
2022-08-20T23:56:05.817Z,19.11
2022-08-20T23:58:53.317Z,19.11
